Time;durP1;ratioP1;P1;durP2;ratioP2;P2;SDS_P1;SDS_P2;PMS_P1;PMS_P2;Temp;Humidity;BMP_temperature;BMP_pressure;BME280_temperature;BME280_humidity;BME280_pressure;Samples;Min_cycle;Max_cycle;Signal;HPM_P1;HPM_P2
2021/10/17 00:01:02;;;;;;;9.17;5.40;;;;;;;8.71;72.85;102180.09;4976411;28;20042;-70
2021/10/17 00:03:27;;;;;;;9.17;5.00;;;;;;;8.71;72.41;102180.09;4979053;28;20039;-71
2021/10/17 00:05:52;;;;;;;9.20;5.67;;;;;;;8.70;72.77;102176.56;4980165;28;20038;-70
2021/10/17 00:08:18;;;;;;;9.53;5.10;;;;;;;8.71;72.34;102178.38;4979768;28;20197;-68
2021/10/17 00:10:43;;;;;;;11.73;5.23;;;;;;;8.71;72.91;102175.75;4980459;28;20030;-70
2021/10/17 00:13:08;;;;;;;8.70;4.80;;;;;;;8.71;73.10;102169.66;4979934;28;20461;-69
2021/10/17 00:15:35;;;;;;;11.67;5.10;;;;;;;8.72;72.85;102174.06;4979515;28;20082;-71
2021/10/17 00:18:00;;;;;;;8.67;5.03;;;;;;;8.73;73.58;102168.00;4978738;28;20030;-69
2021/10/17 00:20:25;;;;;;;10.67;4.97;;;;;;;8.73;73.01;102165.41;4979008;28;20077;-70
2021/10/17 00:22:52;;;;;;;10.80;4.57;;;;;;;8.75;73.08;102169.00;4979167;28;20385;-70
2021/10/17 00:25:17;;;;;;;9.87;5.07;;;;;;;8.73;73.51;102174.13;4962580;28;20039;-71
2021/10/17 00:27:42;;;;;;;9.20;5.07;;;;;;;8.73;73.32;102174.13;4979094;28;20045;-70
2021/10/17 00:30:09;;;;;;;11.57;5.40;;;;;;;8.73;73.46;102170.63;4979210;28;20062;-70
2021/10/17 00:32:34;;;;;;;12.33;4.70;;;;;;;8.73;73.50;102174.13;4979992;28;20043;-69
2021/10/17 00:35:01;;;;;;;11.80;5.47;;;;;;;8.71;73.38;102173.13;4979012;28;20320;-70
2021/10/17 00:37:27;;;;;;;8.43;4.33;;;;;;;8.74;73.24;102177.66;4975045;28;20453;-69
2021/10/17 00:39:53;;;;;;;12.23;5.80;;;;;;;8.75;73.10;102177.75;4943788;29;20031;-69
2021/10/17 00:42:18;;;;;;;8.03;5.50;;;;;;;8.74;73.01;102175.94;4959649;28;20035;-70
2021/10/17 00:44:43;;;;;;;13.27;4.97;;;;;;;8.76;73.24;102173.41;4975482;28;20460;-69
2021/10/17 00:47:09;;;;;;;10.60;5.07;;;;;;;8.76;72.92;102168.19;4977947;28;20066;-70
2021/10/17 00:49:34;;;;;;;16.10;5.93;;;;;;;8.76;73.34;102169.09;4962731;28;20027;-70
2021/10/17 00:52:00;;;;;;;14.73;5.03;;;;;;;8.78;73.50;102171.81;4979265;28;20650;-69
2021/10/17 00:54:25;;;;;;;9.97;5.00;;;;;;;8.77;73.34;102170.88;4961836;28;20369;-69
2021/10/17 00:56:50;;;;;;;11.50;5.23;;;;;;;8.78;73.87;102164.84;4958949;28;20386;-70
2021/10/17 00:59:16;;;;;;;9.13;4.60;;;;;;;8.80;73.12;102162.34;4958607;29;20058;-71
2021/10/17 01:01:41;;;;;;;14.50;5.77;;;;;;;8.80;73.29;102163.22;4969451;28;20110;-68
2021/10/17 01:04:07;;;;;;;12.30;5.50;;;;;;;8.80;73.39;102157.09;4959428;28;20300;-70
2021/10/17 01:06:32;;;;;;;10.67;4.83;;;;;;;8.82;73.17;102155.47;4987596;28;20038;-68
2021/10/17 01:08:58;;;;;;;13.90;6.20;;;;;;;8.82;73.36;102155.47;4962136;28;20029;-69
2021/10/17 01:11:23;;;;;;;9.27;4.67;;;;;;;8.82;73.10;102151.97;4975324;28;20023;-70
2021/10/17 01:13:49;;;;;;;18.77;7.03;;;;;;;8.85;73.08;102149.53;4937916;28;20038;-69
2021/10/17 01:16:14;;;;;;;10.30;5.63;;;;;;;8.85;72.83;102142.56;4974422;28;20042;-70
2021/10/17 01:18:39;;;;;;;11.60;5.90;;;;;;;8.85;73.17;102146.91;4978756;28;20492;-69
2021/10/17 01:21:08;;;;;;;9.20;5.03;;;;;;;8.87;72.70;102140.06;4977328;28;20022;-69
2021/10/17 01:23:33;;;;;;;9.87;5.27;;;;;;;8.86;73.16;102136.56;4961740;28;20033;-69
2021/10/17 01:25:58;;;;;;;8.80;5.00;;;;;;;8.88;72.41;102144.47;4976132;28;20031;-70
2021/10/17 01:28:24;;;;;;;12.83;5.43;;;;;;;8.89;72.60;102141.94;4976449;28;20300;-69
2021/10/17 01:30:50;;;;;;;9.50;5.80;;;;;;;8.90;72.55;102141.13;4978666;28;20034;-69
2021/10/17 01:33:16;;;;;;;10.17;4.67;;;;;;;8.90;72.72;102138.53;4978123;28;20086;-69
2021/10/17 01:35:41;;;;;;;14.13;7.07;;;;;;;8.90;72.93;102133.28;4951403;28;20034;-69
2021/10/17 01:38:06;;;;;;;12.93;5.70;;;;;;;8.91;72.74;102142.94;4975304;28;20058;-69
2021/10/17 01:40:32;;;;;;;13.20;5.33;;;;;;;8.92;72.93;102149.06;4974326;28;20023;-69
2021/10/17 01:42:57;;;;;;;11.27;5.80;;;;;;;8.89;73.00;102141.94;4959136;28;20038;-69
2021/10/17 01:45:23;;;;;;;11.47;5.70;;;;;;;8.90;72.93;102138.53;4959175;28;20053;-70
2021/10/17 01:47:49;;;;;;;11.43;5.47;;;;;;;8.90;73.04;102140.25;4977756;28;20045;-70
2021/10/17 01:50:15;;;;;;;13.57;5.40;;;;;;;8.89;72.96;102136.72;4976784;28;20102;-68
2021/10/17 01:52:40;;;;;;;10.93;5.53;;;;;;;8.89;72.44;102135.81;4977853;28;20135;-69
2021/10/17 01:55:06;;;;;;;8.30;5.00;;;;;;;8.91;72.84;102142.03;4976748;28;20084;-70
2021/10/17 01:57:31;;;;;;;19.50;5.67;;;;;;;8.93;72.96;102143.03;4977252;28;20473;-69
2021/10/17 01:59:56;;;;;;;8.43;5.10;;;;;;;8.92;72.99;102131.66;4977530;28;20029;-69
2021/10/17 02:02:22;;;;;;;10.23;5.17;;;;;;;8.91;73.29;102128.97;4960947;28;20381;-69
2021/10/17 02:04:47;;;;;;;13.03;6.00;;;;;;;8.91;73.11;102124.63;4977932;28;20027;-70
2021/10/17 02:07:12;;;;;;;7.10;4.57;;;;;;;8.95;73.62;102127.44;4988640;28;20054;-69
2021/10/17 02:09:38;;;;;;;7.23;3.87;;;;;;;8.95;72.79;102130.94;4977101;28;20048;-70
2021/10/17 02:12:03;;;;;;;9.53;4.93;;;;;;;8.94;72.80;102126.53;4977830;28;20023;-70
2021/10/17 02:14:29;;;;;;;11.57;5.97;;;;;;;8.94;72.42;102126.53;4973630;28;20023;-69
2021/10/17 02:16:54;;;;;;;9.67;5.13;;;;;;;8.95;72.90;102135.28;4945018;28;20031;-69
2021/10/17 02:19:20;;;;;;;14.23;6.20;;;;;;;8.95;72.42;102130.94;4975643;28;20035;-69
2021/10/17 02:21:45;;;;;;;9.80;5.07;;;;;;;8.95;73.11;102138.78;4977827;28;20081;-70
2021/10/17 02:24:11;;;;;;;7.80;4.97;;;;;;;8.96;73.14;102131.84;4974183;28;20031;-70
2021/10/17 02:26:39;;;;;;;13.27;5.83;;;;;;;8.94;72.81;102129.13;4977279;28;20035;-70
2021/10/17 02:29:05;;;;;;;8.60;4.30;;;;;;;8.96;72.67;102132.72;4973095;28;20178;-69
2021/10/17 02:31:30;;;;;;;13.70;5.73;;;;;;;8.95;72.58;102125.72;4970581;28;20114;-69
2021/10/17 02:33:55;;;;;;;10.90;5.83;;;;;;;8.95;72.31;102120.47;4977190;28;20096;-69
2021/10/17 02:36:21;;;;;;;11.77;5.73;;;;;;;8.98;71.89;102120.69;4976504;28;20022;-69
2021/10/17 02:38:46;;;;;;;9.90;4.90;;;;;;;9.00;71.96;102124.25;4960503;28;20102;-69
2021/10/17 02:41:11;;;;;;;10.93;5.90;;;;;;;9.00;71.59;102129.50;4976650;28;20036;-69
2021/10/17 02:43:37;;;;;;;10.50;6.10;;;;;;;9.01;71.77;102127.75;4959509;28;20085;-69
2021/10/17 02:46:02;;;;;;;12.00;5.43;;;;;;;9.03;71.35;102126.16;4976301;28;20031;-70
2021/10/17 02:48:27;;;;;;;13.73;6.63;;;;;;;9.00;71.51;102119.03;4977190;28;20452;-70
2021/10/17 02:50:53;;;;;;;11.07;5.90;;;;;;;9.05;71.06;102122.78;4977765;28;20333;-69
2021/10/17 02:53:18;;;;;;;12.67;5.67;;;;;;;9.07;71.27;102115.03;4960505;28;20069;-69
2021/10/17 02:55:43;;;;;;;14.80;6.60;;;;;;;9.06;71.17;102110.63;4976941;28;20038;-70
2021/10/17 02:58:09;;;;;;;9.93;5.47;;;;;;;9.06;71.52;102111.53;4975945;28;20118;-70
2021/10/17 03:00:37;;;;;;;10.70;4.63;;;;;;;9.07;70.73;102107.19;4976978;28;20115;-69
2021/10/17 03:03:04;;;;;;;9.77;5.40;;;;;;;9.06;71.35;102106.31;4976321;28;20414;-69
2021/10/17 03:05:29;;;;;;;11.33;6.03;;;;;;;9.05;71.33;102098.38;4959917;28;20046;-68
2021/10/17 03:07:54;;;;;;;17.90;5.87;;;;;;;9.04;71.84;102101.81;4977265;28;20102;-70
2021/10/17 03:10:22;;;;;;;15.63;6.83;;;;;;;9.02;72.32;102101.72;4950642;28;20043;-70
2021/10/17 03:12:48;;;;;;;9.53;5.40;;;;;;;9.00;72.17;102092.91;4958715;28;20601;-68
2021/10/17 03:15:13;;;;;;;12.87;6.13;;;;;;;9.01;72.18;102101.63;4966454;28;20070;-69
2021/10/17 03:17:38;;;;;;;8.47;5.40;;;;;;;8.98;72.07;102091.03;4978117;28;20054;-70
2021/10/17 03:20:04;;;;;;;13.37;5.90;;;;;;;9.00;71.63;102092.91;4977321;28;20077;-69
2021/10/17 03:22:29;;;;;;;13.23;6.90;;;;;;;8.99;72.10;102090.22;4977481;28;20038;-69
2021/10/17 03:24:55;;;;;;;12.47;5.97;;;;;;;8.98;72.46;102091.03;4978064;28;20027;-69
2021/10/17 03:27:20;;;;;;;10.80;5.83;;;;;;;8.99;71.48;102096.34;4977914;28;20420;-69
2021/10/17 03:29:45;;;;;;;14.53;5.93;;;;;;;9.01;71.12;102096.41;4976775;28;20115;-69
2021/10/17 03:32:10;;;;;;;10.97;6.87;;;;;;;9.01;71.37;102086.88;4977881;28;20145;-69
2021/10/17 03:34:36;;;;;;;11.57;6.70;;;;;;;9.02;71.52;102090.41;4976958;28;20037;-70
2021/10/17 03:37:01;;;;;;;11.73;6.00;;;;;;;9.01;71.20;102094.69;4977154;28;20034;-70
2021/10/17 03:39:26;;;;;;;11.73;7.43;;;;;;;8.99;71.66;102093.72;4977628;28;20034;-70
2021/10/17 03:41:51;;;;;;;11.80;6.67;;;;;;;9.00;70.89;102089.38;4978171;28;20062;-70
2021/10/17 03:44:17;;;;;;;11.70;6.57;;;;;;;9.00;71.58;102086.78;4976541;28;20057;-68
2021/10/17 03:46:42;;;;;;;12.13;6.93;;;;;;;8.99;71.63;102087.59;4977216;28;20041;-69
2021/10/17 03:49:07;;;;;;;12.17;6.47;;;;;;;9.01;71.43;102089.47;4977411;28;20053;-70
2021/10/17 03:51:33;;;;;;;15.80;7.00;;;;;;;9.00;72.20;102086.78;4978050;28;20026;-70
2021/10/17 03:53:58;;;;;;;10.33;6.67;;;;;;;9.01;71.34;102071.19;4957799;29;20031;-70
2021/10/17 03:56:24;;;;;;;12.37;6.13;;;;;;;9.02;71.21;102070.38;4941977;29;20042;-70
2021/10/17 03:58:49;;;;;;;14.47;6.40;;;;;;;9.02;71.07;102080.81;4957295;28;20055;-70
2021/10/17 04:01:15;;;;;;;14.80;7.37;;;;;;;9.04;70.79;102071.34;4958128;28;20390;-69
2021/10/17 04:03:41;;;;;;;12.17;7.33;;;;;;;9.03;71.27;102072.16;4963265;28;20042;-69
2021/10/17 04:06:06;;;;;;;13.07;7.10;;;;;;;9.05;70.90;102072.25;4977641;28;20038;-69
2021/10/17 04:08:32;;;;;;;10.23;6.20;;;;;;;9.08;70.91;102077.63;4976836;28;20034;-69
2021/10/17 04:10:57;;;;;;;15.50;7.83;;;;;;;9.05;71.02;102070.53;4961096;28;20041;-69
2021/10/17 04:13:22;;;;;;;10.83;6.00;;;;;;;9.07;71.07;102073.22;4979075;28;20085;-69
2021/10/17 04:15:48;;;;;;;13.17;7.70;;;;;;;9.04;71.43;102070.47;4964602;28;20037;-69
2021/10/17 04:18:13;;;;;;;11.83;7.87;;;;;;;9.03;71.50;102064.31;4979939;28;20090;-70
2021/10/17 04:20:39;;;;;;;21.30;8.53;;;;;;;9.01;71.89;102067.66;4980058;28;20066;-69
2021/10/17 04:23:06;;;;;;;17.20;8.67;;;;;;;9.05;70.89;102065.31;4979773;28;20062;-70
2021/10/17 04:25:31;;;;;;;15.67;8.60;;;;;;;9.05;71.27;102060.06;4980265;28;20042;-70
2021/10/17 04:27:56;;;;;;;14.63;8.70;;;;;;;9.05;71.16;102067.91;4980260;28;20078;-69
2021/10/17 04:30:21;;;;;;;14.67;7.97;;;;;;;9.04;71.52;102060.88;4964065;28;20342;-69
2021/10/17 04:32:47;;;;;;;11.07;6.17;;;;;;;9.07;71.34;102060.16;4980833;28;20333;-69
2021/10/17 04:35:15;;;;;;;13.53;6.73;;;;;;;9.11;70.76;102071.69;4978480;28;20034;-69
2021/10/17 04:37:41;;;;;;;22.43;9.07;;;;;;;9.09;71.56;102068.09;4980318;28;20137;-69
2021/10/17 04:40:06;;;;;;;24.13;8.70;;;;;;;9.04;71.97;102068.72;4980403;28;20440;-70
2021/10/17 04:42:32;;;;;;;19.90;8.33;;;;;;;9.04;71.77;102073.97;4963786;28;20159;-70
2021/10/17 04:45:00;;;;;;;17.13;8.40;;;;;;;9.04;71.37;102073.06;4976648;28;20398;-69
2021/10/17 04:47:26;;;;;;;16.80;8.17;;;;;;;9.03;71.67;102072.16;4961144;28;20066;-70
2021/10/17 04:49:51;;;;;;;18.87;8.23;;;;;;;9.04;71.88;102076.56;4961406;28;20066;-69
2021/10/17 04:52:16;;;;;;;16.87;9.57;;;;;;;9.05;71.28;102077.47;4960518;28;20167;-69
2021/10/17 04:54:42;;;;;;;19.60;9.87;;;;;;;9.05;71.43;102082.72;4973610;28;20046;-68
2021/10/17 04:57:07;;;;;;;21.17;7.83;;;;;;;9.05;71.26;102080.97;4979587;28;20031;-69
2021/10/17 04:59:33;;;;;;;20.60;8.27;;;;;;;9.04;71.55;102078.31;4979160;28;20329;-69
2021/10/17 05:01:59;;;;;;;16.33;7.70;;;;;;;9.03;72.12;102079.13;4947745;28;20297;-69
2021/10/17 05:04:24;;;;;;;17.67;7.83;;;;;;;9.01;71.53;102079.03;4959668;28;20042;-70
2021/10/17 05:06:50;;;;;;;20.90;8.17;;;;;;;9.02;72.24;102080.81;4974960;28;20030;-72
2021/10/17 05:09:15;;;;;;;15.17;7.80;;;;;;;9.01;72.27;102079.03;4979143;28;20030;-69
2021/10/17 05:11:40;;;;;;;16.30;8.30;;;;;;;9.01;72.08;102080.72;4962985;28;20317;-69
2021/10/17 05:14:06;;;;;;;19.63;8.00;;;;;;;9.00;72.17;102082.47;4975434;28;20031;-68
2021/10/17 05:16:31;;;;;;;17.47;8.07;;;;;;;9.00;71.93;102081.53;4944124;28;20310;-69
2021/10/17 05:18:56;;;;;;;17.47;8.60;;;;;;;8.99;71.26;102077.13;4943856;29;20457;-69
2021/10/17 05:21:22;;;;;;;16.63;7.97;;;;;;;9.00;71.57;102076.31;4960562;28;20038;-69
2021/10/17 05:23:47;;;;;;;16.43;7.67;;;;;;;9.02;71.40;102083.44;4965030;28;20121;-69
2021/10/17 05:26:12;;;;;;;14.50;7.90;;;;;;;9.04;71.78;102078.31;4978951;28;20119;-69
2021/10/17 05:28:37;;;;;;;12.47;7.47;;;;;;;9.04;71.67;102083.53;4978248;28;20306;-68
2021/10/17 05:31:03;;;;;;;12.30;6.73;;;;;;;9.04;71.87;102087.03;4979549;28;20317;-69
2021/10/17 05:33:33;;;;;;;14.67;8.30;;;;;;;9.04;71.82;102086.13;4978969;28;20038;-69
2021/10/17 05:35:58;;;;;;;15.97;8.00;;;;;;;9.04;71.77;102080.91;4979469;28;20027;-69
2021/10/17 05:38:24;;;;;;;14.83;6.90;;;;;;;9.05;71.21;102088.81;4979342;28;20084;-69
2021/10/17 05:40:49;;;;;;;17.23;7.60;;;;;;;9.06;71.29;102089.72;4979815;28;20033;-69
2021/10/17 05:43:14;;;;;;;14.17;7.00;;;;;;;9.10;71.25;102093.41;4978237;28;20023;-69
2021/10/17 05:45:40;;;;;;;11.73;5.73;;;;;;;9.11;70.34;102096.13;4961815;28;20381;-68
2021/10/17 05:48:05;;;;;;;19.77;7.47;;;;;;;9.12;70.41;102084.84;4979051;28;20035;-69
2021/10/17 05:50:30;;;;;;;16.27;6.70;;;;;;;9.12;70.92;102090.06;4978967;28;20117;-69
2021/10/17 05:52:56;;;;;;;17.20;7.30;;;;;;;9.13;71.62;102089.25;4978662;28;20102;-69
2021/10/17 05:55:21;;;;;;;13.80;6.80;;;;;;;9.11;70.84;102098.72;4978512;28;20373;-69
2021/10/17 05:57:47;;;;;;;10.63;6.20;;;;;;;9.13;71.03;102090.94;4978770;28;20117;-69
2021/10/17 06:00:12;;;;;;;13.90;6.70;;;;;;;9.13;71.55;102104.94;4962017;28;20118;-69
2021/10/17 06:02:38;;;;;;;13.43;7.17;;;;;;;9.12;71.37;102103.13;4977888;28;20031;-69
2021/10/17 06:05:03;;;;;;;20.97;6.97;;;;;;;9.12;71.75;102116.19;4978130;28;20041;-68
2021/10/17 06:07:29;;;;;;;12.67;6.80;;;;;;;9.11;71.83;102103.03;4975084;28;20031;-68
2021/10/17 06:09:54;;;;;;;16.53;7.47;;;;;;;9.11;72.17;102109.19;4955442;28;20039;-68
2021/10/17 06:12:19;;;;;;;13.97;7.30;;;;;;;9.10;72.36;102106.47;4978246;28;20042;-68
2021/10/17 06:14:45;;;;;;;15.13;6.53;;;;;;;9.10;72.40;102110.00;4977826;28;20030;-70
2021/10/17 06:17:10;;;;;;;18.93;7.50;;;;;;;9.09;72.17;102113.41;4978449;28;20097;-70
2021/10/17 06:19:35;;;;;;;13.37;6.93;;;;;;;9.06;72.28;102114.16;4978185;28;20037;-69
2021/10/17 06:22:03;;;;;;;15.87;6.77;;;;;;;9.07;72.54;102108.13;4975961;28;20042;-68
2021/10/17 06:24:34;;;;;;;12.70;7.40;;;;;;;9.09;72.88;102117.75;4978045;28;20031;-68
2021/10/17 06:27:00;;;;;;;16.97;8.17;;;;;;;9.10;72.09;102119.53;4958819;28;20305;-68
2021/10/17 06:29:25;;;;;;;15.57;7.63;;;;;;;9.12;71.60;102117.91;4926114;28;20114;-69
2021/10/17 06:31:51;;;;;;;16.13;7.03;;;;;;;9.15;71.05;102120.69;4958769;28;20073;-69
2021/10/17 06:34:16;;;;;;;12.70;6.53;;;;;;;9.18;71.32;102126.09;4958051;28;20045;-69
2021/10/17 06:36:41;;;;;;;17.47;7.20;;;;;;;9.19;71.35;102117.44;4943752;29;20035;-69
2021/10/17 06:39:07;;;;;;;19.37;7.67;;;;;;;9.19;71.79;102127.88;4958440;28;20047;-68
2021/10/17 06:41:32;;;;;;;12.53;5.70;;;;;;;9.22;71.70;102130.69;4959456;29;20087;-69
2021/10/17 06:43:58;;;;;;;17.23;6.67;;;;;;;9.22;70.72;102130.69;4941802;29;20434;-69
2021/10/17 06:46:23;;;;;;;14.83;6.47;;;;;;;9.24;71.13;102129.03;4960545;28;20349;-69
2021/10/17 06:48:49;;;;;;;11.03;6.50;;;;;;;9.25;71.49;102133.44;4977803;28;20058;-68
2021/10/17 06:51:14;;;;;;;10.73;5.73;;;;;;;9.27;71.26;102131.81;4977668;28;20035;-69
2021/10/17 06:53:39;;;;;;;14.17;7.00;;;;;;;9.29;71.02;102124.06;4961402;28;20026;-69
2021/10/17 06:56:06;;;;;;;12.93;6.37;;;;;;;9.33;70.77;102131.22;4977355;28;20027;-69
2021/10/17 06:58:32;;;;;;;11.67;6.33;;;;;;;9.33;70.80;102126.91;4977015;28;20042;-69
2021/10/17 07:00:57;;;;;;;12.77;6.17;;;;;;;9.37;70.63;102122.75;4961669;28;20031;-68
2021/10/17 07:03:22;;;;;;;13.90;6.53;;;;;;;9.35;70.77;102120.06;4977444;28;20031;-69
2021/10/17 07:05:48;;;;;;;13.87;6.40;;;;;;;9.35;71.05;102124.41;4977676;28;20113;-69
2021/10/17 07:08:13;;;;;;;12.83;5.97;;;;;;;9.38;71.09;102131.47;4973949;28;20381;-69
2021/10/17 07:10:38;;;;;;;10.73;5.80;;;;;;;9.42;70.68;102123.00;4977703;28;20027;-69
2021/10/17 07:13:04;;;;;;;10.83;5.97;;;;;;;9.44;70.42;102121.34;4976196;28;20097;-69
2021/10/17 07:15:29;;;;;;;14.23;7.23;;;;;;;9.44;71.13;102127.50;4977778;28;20081;-69
2021/10/17 07:17:54;;;;;;;12.33;5.83;;;;;;;9.45;70.56;102121.44;4977563;28;20046;-69
2021/10/17 07:20:20;;;;;;;13.83;5.90;;;;;;;9.48;71.06;102125.94;4977775;28;20035;-68
2021/10/17 07:22:45;;;;;;;11.53;6.03;;;;;;;9.50;70.73;102121.69;4978148;28;20436;-69
2021/10/17 07:25:10;;;;;;;13.87;5.93;;;;;;;9.53;70.33;102131.41;4978032;28;20027;-69
2021/10/17 07:27:36;;;;;;;18.90;6.90;;;;;;;9.54;69.50;102126.28;4977808;28;20023;-68
2021/10/17 07:30:01;;;;;;;12.93;5.60;;;;;;;9.62;68.86;102127.59;4957250;28;20043;-69
2021/10/17 07:32:26;;;;;;;11.83;6.47;;;;;;;9.65;69.16;102123.34;4974588;28;20054;-69
2021/10/17 07:34:52;;;;;;;11.57;5.97;;;;;;;9.64;70.20;102126.78;4977301;28;20023;-70
2021/10/17 07:37:17;;;;;;;14.03;6.63;;;;;;;9.66;69.81;102127.75;4977179;28;20449;-69
2021/10/17 07:39:42;;;;;;;12.20;5.50;;;;;;;9.69;69.76;102131.41;4978133;28;20027;-70
2021/10/17 07:42:08;;;;;;;12.87;5.97;;;;;;;9.74;68.87;102136.88;4961147;28;20029;-69
2021/10/17 07:44:33;;;;;;;9.87;6.10;;;;;;;9.83;68.31;102128.63;4973211;28;20058;-69
2021/10/17 07:46:58;;;;;;;14.40;5.40;;;;;;;9.87;67.99;102141.94;4942640;28;20306;-70
2021/10/17 07:49:24;;;;;;;11.77;6.03;;;;;;;9.92;68.36;102138.66;4961381;28;20050;-70
2021/10/17 07:51:49;;;;;;;15.00;6.30;;;;;;;9.93;67.53;102136.13;4964762;28;20038;-69
2021/10/17 07:54:14;;;;;;;10.70;5.63;;;;;;;9.97;68.42;102142.44;4948122;29;20035;-70
2021/10/17 07:56:40;;;;;;;10.70;5.87;;;;;;;10.00;68.07;102142.56;4968874;28;20039;-69
2021/10/17 07:59:05;;;;;;;14.97;6.60;;;;;;;10.01;68.23;102139.13;4979920;28;20445;-69
2021/10/17 08:01:30;;;;;;;15.80;7.03;;;;;;;10.04;67.66;102141.94;4983204;28;20065;-69
2021/10/17 08:03:55;;;;;;;18.40;7.47;;;;;;;10.09;67.89;102142.16;4978141;28;20042;-68
2021/10/17 08:06:21;;;;;;;10.83;6.57;;;;;;;10.12;67.51;102142.31;4980099;28;20455;-68
2021/10/17 08:08:46;;;;;;;11.00;6.30;;;;;;;10.15;67.48;102140.75;4980426;28;20286;-68
2021/10/17 08:11:11;;;;;;;12.73;5.47;;;;;;;10.19;68.34;102138.31;4964195;28;20034;-70
2021/10/17 08:13:37;;;;;;;10.43;5.43;;;;;;;10.20;67.83;102138.34;4980668;28;20306;-68
2021/10/17 08:16:02;;;;;;;12.10;6.83;;;;;;;10.20;67.36;102135.75;4980983;28;20019;-70
2021/10/17 08:18:28;;;;;;;14.63;6.43;;;;;;;10.19;68.15;102144.41;4981197;28;20461;-70
2021/10/17 08:20:53;;;;;;;13.10;6.27;;;;;;;10.24;67.23;102140.31;4968487;28;20316;-68
2021/10/17 08:23:19;;;;;;;14.20;6.43;;;;;;;10.25;67.42;102142.13;4991684;28;20031;-69
2021/10/17 08:25:44;;;;;;;13.07;6.57;;;;;;;10.29;67.12;102143.16;4980371;28;20389;-69
2021/10/17 08:28:14;;;;;;;11.07;6.70;;;;;;;10.30;67.72;102140.63;4980097;28;20039;-69
2021/10/17 08:30:39;;;;;;;15.20;6.93;;;;;;;10.32;66.88;102145.94;4981078;28;20034;-68
2021/10/17 08:33:04;;;;;;;14.30;6.47;;;;;;;10.34;67.52;102140.78;4963087;28;20397;-69
2021/10/17 08:35:30;;;;;;;17.40;7.43;;;;;;;10.42;66.76;102148.22;4978911;28;20022;-69
2021/10/17 08:37:55;;;;;;;11.17;5.20;;;;;;;10.51;66.58;102141.66;4979854;28;20038;-69
2021/10/17 08:40:20;;;;;;;15.30;6.27;;;;;;;10.54;66.51;102144.41;4979678;28;20218;-70
2021/10/17 08:42:46;;;;;;;15.47;6.57;;;;;;;10.63;65.24;102144.00;4979555;28;20440;-73
2021/10/17 08:45:11;;;;;;;18.50;6.87;;;;;;;10.68;65.22;102137.22;4980327;28;20053;-70
2021/10/17 08:47:37;;;;;;;17.20;6.63;;;;;;;10.71;65.37;102140.91;4980765;28;20107;-70
2021/10/17 08:50:03;;;;;;;11.60;6.57;;;;;;;10.71;65.66;102129.53;4995761;28;20031;-69
2021/10/17 08:52:28;;;;;;;12.63;6.90;;;;;;;10.74;65.20;102142.78;4980749;28;20042;-69
2021/10/17 08:54:54;;;;;;;14.97;6.53;;;;;;;10.76;65.19;102135.00;4979052;28;20053;-69
2021/10/17 08:57:19;;;;;;;10.97;5.57;;;;;;;10.77;64.73;102136.78;4953290;28;20034;-68
2021/10/17 08:59:47;;;;;;;16.57;6.33;;;;;;;10.77;65.37;102132.44;4979977;28;20234;-69
2021/10/17 09:02:14;;;;;;;15.97;7.50;;;;;;;10.80;65.61;102132.59;4979466;28;20042;-68
2021/10/17 09:04:39;;;;;;;12.13;6.33;;;;;;;10.84;65.67;102139.78;4979402;28;20126;-70
2021/10/17 09:07:21;;;;;;;15.27;6.77;;;;;;;10.86;65.30;102140.72;4979409;28;20091;-70
2021/10/17 09:10:12;;;;;;;10.07;5.60;;;;;;;10.94;64.79;102140.19;4980068;28;20093;-70
2021/10/17 09:12:38;;;;;;;13.53;6.77;;;;;;;10.93;64.00;102141.03;4979911;28;20151;-69
2021/10/17 09:15:20;;;;;;;11.10;7.07;;;;;;;10.96;65.00;102139.44;4962487;28;20038;-73
2021/10/17 09:18:03;;;;;;;12.47;5.67;;;;;;;11.03;64.39;102137.13;4963579;28;20412;-70
2021/10/17 09:20:29;;;;;;;13.13;7.07;;;;;;;11.05;64.36;102139.00;4980539;28;20026;-70
2021/10/17 09:23:04;;;;;;;16.40;6.73;;;;;;;11.06;64.81;102143.41;4979701;28;20081;-69
2021/10/17 09:25:34;;;;;;;18.60;7.83;;;;;;;11.05;64.52;102148.56;4963240;28;20073;-69
2021/10/17 09:27:59;;;;;;;11.17;6.57;;;;;;;11.03;64.63;102151.16;4978689;28;20556;-69
2021/10/17 09:30:25;;;;;;;9.33;6.13;;;;;;;11.05;64.94;102151.19;4978495;28;20038;-69
2021/10/17 09:32:50;;;;;;;13.23;6.63;;;;;;;11.05;64.58;102148.56;4962631;28;20066;-68
2021/10/17 09:35:16;;;;;;;13.30;5.60;;;;;;;11.09;64.27;102142.66;4962708;28;20027;-70
2021/10/17 09:37:45;;;;;;;10.83;6.20;;;;;;;11.08;63.96;102144.38;4979324;28;20037;-69
2021/10/17 09:40:24;;;;;;;9.57;6.13;;;;;;;11.10;64.06;102147.97;4963519;28;20037;-69
2021/10/17 09:43:15;;;;;;;20.57;6.13;;;;;;;11.08;64.45;102148.75;4978811;28;20039;-68
2021/10/17 09:45:42;;;;;;;8.23;5.53;;;;;;;11.18;63.80;102150.03;4979832;28;20058;-70
2021/10/17 09:48:08;;;;;;;13.83;6.00;;;;;;;11.23;64.64;102152.09;4978602;28;20030;-69
2021/10/17 09:50:33;;;;;;;10.80;5.63;;;;;;;11.34;63.85;102142.06;4965951;28;20413;-69
2021/10/17 09:53:08;;;;;;;9.70;5.50;;;;;;;11.49;63.52;102154.09;4977074;28;20026;-69
2021/10/17 09:55:34;;;;;;;7.00;5.40;;;;;;;11.58;63.82;102153.63;4979385;28;20114;-69
2021/10/17 09:58:00;;;;;;;11.20;6.07;;;;;;;11.69;63.77;102155.00;4978240;28;20425;-68
2021/10/17 10:00:26;;;;;;;9.93;4.90;;;;;;;11.87;62.88;102154.91;4979408;28;20039;-69
2021/10/17 10:02:52;;;;;;;10.27;5.20;;;;;;;12.02;62.32;102149.44;4974391;28;20318;-70
2021/10/17 10:05:27;;;;;;;11.40;5.67;;;;;;;12.09;62.32;102138.41;4958918;28;20023;-69
2021/10/17 10:07:52;;;;;;;8.70;5.20;;;;;;;12.21;62.85;102140.66;4983169;28;20035;-70
2021/10/17 10:10:20;;;;;;;10.40;6.00;;;;;;;12.29;60.65;102126.94;4977141;28;20109;-72
2021/10/17 10:12:45;;;;;;;10.47;5.60;;;;;;;12.36;59.67;102137.78;4937022;29;20091;-69
2021/10/17 10:15:10;;;;;;;15.83;6.57;;;;;;;12.46;60.09;102138.16;4939797;29;20375;-69
2021/10/17 10:17:37;;;;;;;10.20;5.37;;;;;;;12.46;60.13;102136.41;4958151;28;20027;-70
2021/10/17 10:20:02;;;;;;;9.53;5.67;;;;;;;12.53;60.76;102134.97;4957051;28;20031;-70
2021/10/17 10:22:31;;;;;;;8.20;5.43;;;;;;;12.52;59.99;102135.81;4956165;28;20094;-71
2021/10/17 10:24:56;;;;;;;7.90;5.63;;;;;;;12.52;59.66;102133.16;4955144;28;20071;-71
2021/10/17 10:27:22;;;;;;;13.60;5.50;;;;;;;12.56;58.81;102139.41;4950447;28;352478;-70
2021/10/17 10:29:47;;;;;;;10.47;5.57;;;;;;;12.53;59.89;102137.59;4930752;28;20085;-71
2021/10/17 10:32:23;;;;;;;15.13;5.43;;;;;;;12.53;60.29;102137.59;4977226;28;20031;-72
2021/10/17 10:34:50;;;;;;;9.85;5.20;;;;;;;12.56;59.13;102145.59;4978048;28;157778;-71
2021/10/17 10:37:17;;;;;;;10.70;5.90;;;;;;;12.55;58.50;102137.63;4980144;28;20046;-71
2021/10/17 10:40:02;;;;;;;10.27;5.17;;;;;;;12.49;59.24;102143.53;4977947;28;20018;-72
2021/10/17 10:42:37;;;;;;;8.27;5.00;;;;;;;12.49;59.19;102140.91;4978514;28;20109;-71
2021/10/17 10:45:34;;;;;;;12.77;5.80;;;;;;;12.47;59.34;102142.59;4977403;28;20297;-71
2021/10/17 10:48:06;;;;;;;9.23;4.97;;;;;;;12.51;58.65;102141.84;4977194;28;20353;-72
2021/10/17 10:50:36;;;;;;;9.43;4.93;;;;;;;12.48;59.13;102147.00;4974611;28;20043;-72
2021/10/17 10:53:01;;;;;;;11.80;5.43;;;;;;;12.42;59.68;102144.09;4977396;28;20077;-70
2021/10/17 10:55:49;;;;;;;8.57;5.57;;;;;;;12.38;58.80;102143.09;4978719;28;20027;-71
2021/10/17 10:58:21;;;;;;;7.27;4.60;;;;;;;12.38;59.41;102150.09;4977124;28;20046;-72
2021/10/17 11:00:46;;;;;;;10.60;5.23;;;;;;;12.34;59.04;102151.69;4977460;28;20106;-71
2021/10/17 11:03:13;;;;;;;11.30;4.80;;;;;;;12.36;59.23;102155.25;4975225;28;20502;-73
2021/10/17 11:05:38;;;;;;;10.13;6.10;;;;;;;12.33;59.45;102145.53;4973093;28;20271;-72
2021/10/17 11:08:14;;;;;;;9.80;5.47;;;;;;;12.31;59.54;102148.91;4941125;29;20094;-70
2021/10/17 11:10:40;;;;;;;13.38;5.63;;;;;;;12.31;59.83;102144.56;4960504;28;20034;-72
2021/10/17 11:13:09;;;;;;;13.97;5.63;;;;;;;12.31;60.38;102143.66;4977854;28;20109;-73
2021/10/17 11:15:37;;;;;;;8.07;5.10;;;;;;;12.26;59.77;102140.84;4973803;28;20027;-72
2021/10/17 11:18:04;;;;;;;8.90;5.30;;;;;;;12.27;59.82;102136.50;4958572;28;20160;-72
2021/10/17 11:20:35;;;;;;;10.63;5.27;;;;;;;12.22;60.02;102137.19;4974045;28;20018;-71